aviador You're here:

KMHL Decoded Metar

in
Report Time2018-05-28 04:55:00
UTC Time2018-05-28 04:51:42
Flight Rules vfr VFR
WindCalm
Visibility9999 m
Phenomena:N/A
Clouds:N/A
Expected CloudBase > 1,600 ft AGL from Temp-Dew spread
CeilingNone
Temp26°C
Dew Point22°C (79% RH)
QNH1013 hPa
Raw Report
KMHL 280455Z AUTO 00000KT 10SM CLR 26/22 A2992 RMK AO2=

Extra information for KMHL:More info

Social comments